CheckWX is a tool to help pilots better visualize weather data.  It is not intended as a substitute for an official pre-flight weather briefing.

22:15:00 UTC

KWWR TAF
West Woodward Airport
Woodward, Oklahoma, USA
KWWR 201720Z 2018/2118 31010G18KT P6SM SKC FM210300 27006KT P6SM SKC FM211100 03005KT P6SM SKC

Mar-20@
18:00 UTC

Mar-20 @ 18:00 UTC

Mar-21@
03:00 UTC

Mar-21 @ 03:00 UTC

KWWR 201720Z 2018/2118 31010G18KT P6SM SKC
Wind
  • 310° at 10 KTS
  • {Gusting to 18 KTS
Cloud Levels
  • Clear skies

Mar-21@
03:00 UTC

Mar-21 @ 03:00 UTC

Mar-21@
11:00 UTC

Mar-21 @ 11:00 UTC

FM210300 27006KT P6SM SKC

From

From Standard forecast or significant change

Wind
  • 270° at 6 KTS
Cloud Levels
  • Clear skies

Mar-21@
11:00 UTC

Mar-21 @ 11:00 UTC

Mar-21@
18:00 UTC

Mar-21 @ 18:00 UTC

FM211100 03005KT P6SM SKC

From

From Standard forecast or significant change

Wind
  • 030° at 5 KTS
Cloud Levels
  • Clear skies